Time;durP1;ratioP1;P1;durP2;ratioP2;P2;SDS_P1;SDS_P2;PMS_P1;PMS_P2;Temp;Humidity;BMP_temperature;BMP_pressure;BME280_temperature;BME280_humidity;BME280_pressure;Samples;Min_cycle;Max_cycle;Signal;HPM_P1;HPM_P2
2023/10/21 00:06:55;;;;;;;0.20;0.20;;;;;;;12.32;100.00;96225.25;4968940;28;20397;-60
2023/10/21 00:09:22;;;;;;;0.10;0.10;;;;;;;12.37;100.00;96219.69;4955228;28;20043;-59
2023/10/21 00:11:49;;;;;;;0.17;0.17;;;;;;;12.38;100.00;96224.75;4958002;28;20603;-60
2023/10/21 00:14:17;;;;;;;0.10;0.10;;;;;;;12.38;100.00;96224.75;4967714;28;20041;-59
2023/10/21 00:16:44;;;;;;;0.15;0.15;;;;;;;12.43;100.00;96229.13;4968620;28;20085;-60
2023/10/21 00:19:11;;;;;;;0.10;0.10;;;;;;;12.43;100.00;96229.13;4983120;28;20507;-60
2023/10/21 00:21:39;;;;;;;0.10;0.10;;;;;;;12.44;100.00;96234.16;4981058;28;20450;-59
2023/10/21 00:24:08;;;;;;;0.10;0.10;;;;;;;12.41;100.00;96228.69;4980674;28;20043;-59
2023/10/21 00:26:44;;;;;;;0.20;0.20;;;;;;;12.47;100.00;96222.00;4980262;28;20348;-59
2023/10/21 00:29:12;;;;;;;0.10;0.10;;;;;;;12.54;100.00;96224.16;4996323;28;20604;-58
2023/10/21 00:31:39;;;;;;;0.10;0.10;;;;;;;12.58;100.00;96225.06;4981897;28;20500;-59
2023/10/21 00:34:06;;;;;;;0.10;0.10;;;;;;;12.62;100.00;96226.75;4983319;28;20085;-59
2023/10/21 00:36:33;;;;;;;0.10;0.10;;;;;;;12.69;100.00;96229.72;4982162;28;20101;-59
2023/10/21 00:39:01;;;;;;;0.10;0.10;;;;;;;12.69;100.00;96226.25;4982905;28;20042;-58
2023/10/21 00:41:29;;;;;;;0.10;0.10;;;;;;;12.67;100.00;96221.19;4983259;28;20485;-59
2023/10/21 00:43:56;;;;;;;0.10;0.10;;;;;;;12.66;100.00;96225.00;4982988;28;20374;-59
2023/10/21 00:46:26;;;;;;;0.10;0.10;;;;;;;12.70;100.00;96230.50;4977345;28;20133;-59
2023/10/21 00:48:53;;;;;;;0.10;0.10;;;;;;;12.72;100.00;96233.63;4992354;28;20043;-58
2023/10/21 00:51:21;;;;;;;0.10;0.10;;;;;;;12.73;100.00;96236.00;4983247;28;20093;-58
2023/10/21 00:53:48;;;;;;;0.10;0.10;;;;;;;12.77;100.00;96235.34;4981491;28;20070;-59
2023/10/21 00:56:15;;;;;;;0.00;0.00;;;;;;;12.82;100.00;96240.50;4983002;28;20516;-59
2023/10/21 00:58:43;;;;;;;0.10;0.10;;;;;;;12.75;100.00;96241.03;5005087;28;20519;-58
2023/10/21 01:01:10;;;;;;;0.10;0.10;;;;;;;12.79;100.00;96241.19;4984746;28;20049;-59
2023/10/21 01:03:38;;;;;;;0.10;0.10;;;;;;;12.77;100.00;96240.72;4990762;28;20061;-59
2023/10/21 01:06:05;;;;;;;0.10;0.10;;;;;;;12.73;100.00;96246.75;4991183;28;20067;-58
2023/10/21 01:08:39;;;;;;;0.10;0.10;;;;;;;12.71;100.00;96253.56;4991645;28;20476;-59
2023/10/21 01:11:06;;;;;;;0.10;0.10;;;;;;;12.76;100.00;96253.38;4999311;28;20559;-59
2023/10/21 01:13:33;;;;;;;0.10;0.10;;;;;;;12.78;100.00;96255.72;5003162;28;20062;-59
2023/10/21 01:16:01;;;;;;;0.10;0.10;;;;;;;12.81;100.00;96260.47;5000380;28;20041;-59
2023/10/21 01:18:33;;;;;;;0.10;0.10;;;;;;;12.76;100.00;96266.81;4988740;28;20129;-59
2023/10/21 01:21:01;;;;;;;0.10;0.10;;;;;;;12.78;100.00;96267.28;4988113;28;20049;-59
2023/10/21 01:23:30;;;;;;;0.10;0.10;;;;;;;12.73;100.00;96262.88;4987357;28;20066;-59
2023/10/21 01:25:57;;;;;;;0.10;0.10;;;;;;;12.73;100.00;96272.84;4969911;28;20050;-59
2023/10/21 01:28:26;;;;;;;0.10;0.10;;;;;;;12.73;100.00;96276.31;4993238;28;20047;-59
2023/10/21 01:30:53;;;;;;;0.10;0.10;;;;;;;12.73;100.00;96275.53;4987379;28;20456;-59
2023/10/21 01:33:20;;;;;;;0.10;0.10;;;;;;;12.77;100.00;96272.97;4987859;28;20467;-59
2023/10/21 01:35:46;;;;;;;0.10;0.10;;;;;;;12.80;100.00;96280.38;4987985;28;20049;-59
2023/10/21 01:38:15;;;;;;;0.10;0.10;;;;;;;12.72;100.00;96279.31;4984546;28;20045;-59
2023/10/21 01:40:43;;;;;;;0.10;0.10;;;;;;;12.69;100.00;96283.44;4984594;28;20082;-58
2023/10/21 01:43:10;;;;;;;0.10;0.10;;;;;;;12.65;100.00;96282.53;4983996;28;20050;-59
2023/10/21 01:45:38;;;;;;;0.10;0.10;;;;;;;12.65;100.00;96290.59;4985499;28;20046;-59
2023/10/21 01:48:05;;;;;;;0.08;0.08;;;;;;;12.68;100.00;96286.44;4986689;28;20047;-59
2023/10/21 01:50:32;;;;;;;0.10;0.10;;;;;;;12.66;100.00;96286.81;4984537;28;20041;-59
2023/10/21 01:52:59;;;;;;;0.10;0.10;;;;;;;12.67;100.00;96290.25;4986963;28;20436;-59
2023/10/21 01:55:26;;;;;;;0.00;0.00;;;;;;;12.65;100.00;96295.97;4981837;28;20042;-59
2023/10/21 01:57:55;;;;;;;0.00;0.00;;;;;;;12.63;100.00;96298.22;4989954;28;20042;-59
2023/10/21 02:00:22;;;;;;;0.10;0.10;;;;;;;12.65;100.00;96304.03;4984443;28;20092;-59
2023/10/21 02:02:50;;;;;;;0.10;0.10;;;;;;;12.64;100.00;96307.06;4984366;28;20449;-59
2023/10/21 02:05:17;;;;;;;0.10;0.10;;;;;;;12.61;100.00;96308.50;4992295;28;20062;-59
2023/10/21 02:07:44;;;;;;;0.10;0.10;;;;;;;12.55;100.00;96319.75;4984099;28;20046;-59
2023/10/21 02:10:11;;;;;;;0.20;0.20;;;;;;;12.50;100.00;96318.84;4983084;28;20134;-59
2023/10/21 02:12:38;;;;;;;0.10;0.10;;;;;;;12.44;100.00;96325.50;4982970;28;20048;-59
2023/10/21 02:15:11;;;;;;;0.10;0.10;;;;;;;12.49;100.00;96332.59;4991851;28;20500;-59
2023/10/21 02:17:39;;;;;;;0.08;0.08;;;;;;;12.41;100.00;96333.44;4997529;28;20094;-59
2023/10/21 02:20:09;;;;;;;0.10;0.10;;;;;;;12.36;100.00;96345.13;4977454;28;20050;-59
2023/10/21 02:22:37;;;;;;;0.10;0.10;;;;;;;12.40;100.00;96342.59;5014717;28;20071;-59
2023/10/21 02:25:04;;;;;;;0.17;0.17;;;;;;;12.33;100.00;96347.66;4987219;28;20048;-58
2023/10/21 02:27:31;;;;;;;0.10;0.10;;;;;;;12.30;100.00;96355.28;4985383;28;20137;-58
2023/10/21 02:29:59;;;;;;;0.10;0.10;;;;;;;12.26;100.00;96357.03;4984576;28;20042;-58
2023/10/21 02:32:28;;;;;;;0.10;0.10;;;;;;;12.30;100.00;96360.66;4984404;28;20441;-58
2023/10/21 02:34:56;;;;;;;0.10;0.10;;;;;;;12.51;100.00;96373.34;4989032;28;20061;-58
2023/10/21 02:37:24;;;;;;;0.08;0.08;;;;;;;12.55;100.00;96390.38;4984948;28;20042;-59
2023/10/21 02:39:51;;;;;;;0.10;0.10;;;;;;;12.73;100.00;96397.25;4984362;28;20053;-59
2023/10/21 02:42:19;;;;;;;0.10;0.10;;;;;;;12.61;100.00;96453.56;4984644;28;20121;-59
2023/10/21 02:44:46;;;;;;;0.10;0.10;;;;;;;12.45;100.00;96482.84;4985480;28;20050;-59
2023/10/21 02:47:13;;;;;;;0.10;0.10;;;;;;;12.37;100.00;96497.09;4985293;28;20417;-59
2023/10/21 02:49:42;;;;;;;0.20;0.20;;;;;;;12.36;100.00;96505.50;4987981;28;20466;-59
2023/10/21 02:52:09;;;;;;;0.10;0.10;;;;;;;12.35;100.00;96517.34;4984323;28;20067;-59
2023/10/21 02:54:36;;;;;;;0.10;0.10;;;;;;;12.42;100.00;96520.31;5000662;28;20053;-59
2023/10/21 02:57:04;;;;;;;0.10;0.10;;;;;;;12.37;100.00;96533.94;4985058;28;20052;-59
2023/10/21 02:59:31;;;;;;;0.13;0.13;;;;;;;12.42;100.00;96545.28;4986715;28;20042;-59
2023/10/21 03:01:58;;;;;;;0.10;0.10;;;;;;;12.40;100.00;96539.44;4982151;28;20262;-59
2023/10/21 03:04:25;;;;;;;0.10;0.10;;;;;;;12.43;100.00;96548.75;4985837;28;20038;-59
2023/10/21 03:06:53;;;;;;;0.10;0.10;;;;;;;12.45;100.00;96563.44;4963611;28;20043;-59
2023/10/21 03:09:22;;;;;;;0.20;0.20;;;;;;;12.40;100.00;96587.00;4982063;28;20150;-60
2023/10/21 03:11:49;;;;;;;0.10;0.10;;;;;;;12.40;100.00;96595.06;4972381;28;20038;-59
2023/10/21 03:14:16;;;;;;;0.10;0.10;;;;;;;12.28;100.00;96607.25;4961179;28;20109;-59
2023/10/21 03:16:43;;;;;;;0.00;0.00;;;;;;;12.36;100.00;96623.69;4968049;28;20126;-59
2023/10/21 03:19:10;;;;;;;0.10;0.10;;;;;;;12.34;100.00;96626.66;4967547;28;20065;-59
2023/10/21 03:21:37;;;;;;;0.10;0.10;;;;;;;12.35;100.00;96625.56;4963539;28;20038;-59
2023/10/21 03:24:06;;;;;;;0.20;0.20;;;;;;;12.44;100.00;96630.94;4963990;28;20109;-59
2023/10/21 03:26:34;;;;;;;0.20;0.20;;;;;;;12.42;100.00;96641.19;4965316;28;20404;-59
2023/10/21 03:29:01;;;;;;;0.10;0.10;;;;;;;12.40;100.00;96646.88;4964124;28;20046;-59
2023/10/21 03:31:28;;;;;;;0.10;0.10;;;;;;;12.38;100.00;96653.66;4965650;28;20049;-59
2023/10/21 03:33:55;;;;;;;0.10;0.10;;;;;;;12.35;100.00;96665.06;4967787;28;20314;-59
2023/10/21 03:36:22;;;;;;;0.10;0.10;;;;;;;12.24;100.00;96675.34;4969427;28;20097;-59
2023/10/21 03:38:49;;;;;;;0.10;0.10;;;;;;;12.21;100.00;96679.44;4971568;28;20469;-59
2023/10/21 03:41:17;;;;;;;0.10;0.10;;;;;;;12.30;100.00;96685.63;4960904;28;20047;-59
2023/10/21 03:43:44;;;;;;;0.10;0.10;;;;;;;12.28;100.00;96697.75;4965623;28;20051;-59
2023/10/21 03:46:14;;;;;;;0.10;0.10;;;;;;;12.26;100.00;96708.03;4966256;28;20244;-59
2023/10/21 03:48:41;;;;;;;0.20;0.20;;;;;;;12.22;100.00;96721.28;4965165;28;20061;-59
2023/10/21 03:51:10;;;;;;;0.10;0.10;;;;;;;12.18;100.00;96728.41;4966092;28;20409;-59
2023/10/21 03:53:37;;;;;;;0.10;0.10;;;;;;;12.18;100.00;96723.03;4969640;28;20046;-59
2023/10/21 03:56:04;;;;;;;0.10;0.10;;;;;;;12.24;100.00;96723.66;4963643;28;20138;-59
2023/10/21 03:58:32;;;;;;;0.10;0.10;;;;;;;12.14;100.00;96727.44;4965466;28;20041;-59
2023/10/21 04:00:59;;;;;;;0.05;0.05;;;;;;;12.15;100.00;96734.38;4961199;28;20507;-59
2023/10/21 04:03:26;;;;;;;0.10;0.10;;;;;;;12.12;100.00;96737.69;4966258;28;20572;-59
2023/10/21 04:05:53;;;;;;;0.10;0.10;;;;;;;12.11;100.00;96738.81;4975679;28;20046;-59
2023/10/21 04:08:20;;;;;;;0.10;0.10;;;;;;;12.10;100.00;96750.63;4977330;28;20421;-60
2023/10/21 04:10:47;;;;;;;0.10;0.10;;;;;;;12.08;100.00;96742.09;4982819;28;20158;-59
2023/10/21 04:13:14;;;;;;;0.00;0.00;;;;;;;12.04;100.00;96759.97;4985202;28;20039;-59
2023/10/21 04:15:43;;;;;;;0.10;0.10;;;;;;;12.02;100.00;96760.25;4982586;28;20158;-59
2023/10/21 04:18:10;;;;;;;0.10;0.10;;;;;;;12.04;100.00;96765.31;4980956;28;20058;-59
2023/10/21 04:20:38;;;;;;;0.10;0.10;;;;;;;11.98;100.00;96771.91;4980128;28;20479;-59
2023/10/21 04:23:05;;;;;;;0.10;0.10;;;;;;;11.94;100.00;96773.66;4979690;28;20149;-59
2023/10/21 04:25:32;;;;;;;0.10;0.10;;;;;;;11.93;100.00;96782.81;4982557;28;20053;-59
2023/10/21 04:27:59;;;;;;;0.10;0.10;;;;;;;11.98;100.00;96790.72;5016178;28;20615;-59
2023/10/21 04:30:26;;;;;;;0.10;0.10;;;;;;;11.96;100.00;96795.63;4984586;28;20060;-58
2023/10/21 04:32:55;;;;;;;0.10;0.10;;;;;;;11.95;100.00;96796.72;4990485;28;20126;-58
2023/10/21 04:35:22;;;;;;;0.13;0.13;;;;;;;11.94;100.00;96800.50;4985299;28;20046;-59
2023/10/21 04:37:49;;;;;;;0.20;0.20;;;;;;;11.90;100.00;96807.59;4977658;28;21503;-58
2023/10/21 04:40:16;;;;;;;0.10;0.10;;;;;;;11.88;100.00;96813.25;4982323;28;20420;-58
2023/10/21 04:42:43;;;;;;;0.10;0.10;;;;;;;11.91;100.00;96811.88;4984984;28;20038;-59
2023/10/21 04:45:11;;;;;;;0.10;0.10;;;;;;;11.85;100.00;96811.94;4985280;28;20043;-58
2023/10/21 04:47:38;;;;;;;0.10;0.10;;;;;;;11.90;100.00;96813.75;4983914;28;20477;-59
2023/10/21 04:50:07;;;;;;;0.20;0.20;;;;;;;11.89;100.00;96819.44;4985479;28;20512;-59
2023/10/21 04:52:34;;;;;;;0.17;0.17;;;;;;;11.86;100.00;96815.44;4988945;28;20196;-59
2023/10/21 04:55:01;;;;;;;0.20;0.20;;;;;;;12.00;100.00;96826.09;4989803;28;20145;-59
2023/10/21 04:57:28;;;;;;;0.10;0.10;;;;;;;12.06;100.00;96840.97;4988181;28;20060;-59
2023/10/21 04:59:55;;;;;;;0.10;0.10;;;;;;;12.06;100.00;96835.63;4987882;28;20142;-59
2023/10/21 05:02:22;;;;;;;0.20;0.20;;;;;;;12.08;100.00;96836.06;4988047;28;20053;-59
2023/10/21 05:04:50;;;;;;;0.10;0.10;;;;;;;12.18;100.00;96845.75;4988830;28;20050;-59
2023/10/21 05:07:18;;;;;;;0.10;0.10;;;;;;;12.15;100.00;96843.69;4987232;28;20074;-59
2023/10/21 05:09:46;;;;;;;0.20;0.20;;;;;;;12.13;100.00;96852.06;4987907;28;20354;-59
2023/10/21 05:12:13;;;;;;;0.10;0.10;;;;;;;12.13;100.00;96852.06;4987954;28;20053;-59
2023/10/21 05:14:40;;;;;;;0.10;0.10;;;;;;;12.13;100.00;96854.75;4982553;28;20038;-59
2023/10/21 05:17:07;;;;;;;0.10;0.10;;;;;;;12.12;100.00;96861.22;4987511;28;20050;-59
2023/10/21 05:19:34;;;;;;;0.13;0.13;;;;;;;12.05;100.00;96874.28;4988844;28;20046;-59
2023/10/21 05:22:02;;;;;;;0.10;0.10;;;;;;;12.09;100.00;96883.31;4989472;28;20404;-59
2023/10/21 05:24:31;;;;;;;0.20;0.20;;;;;;;12.12;100.00;96873.84;4988014;28;20460;-59
2023/10/21 05:26:57;;;;;;;0.10;0.10;;;;;;;12.16;100.00;96888.25;4985883;28;20184;-59
2023/10/21 05:29:24;;;;;;;0.10;0.10;;;;;;;12.12;100.00;96888.06;4984682;28;20058;-59
2023/10/21 05:31:51;;;;;;;0.10;0.10;;;;;;;12.06;100.00;96892.00;4987204;28;20237;-59
2023/10/21 05:34:19;;;;;;;0.10;0.10;;;;;;;12.02;100.00;96893.69;4987564;28;20495;-59
2023/10/21 05:36:46;;;;;;;0.10;0.10;;;;;;;11.97;100.00;96900.00;4986485;28;20389;-59
2023/10/21 05:39:13;;;;;;;0.10;0.10;;;;;;;11.89;100.00;96911.47;4984255;28;20050;-59
2023/10/21 05:41:42;;;;;;;0.10;0.10;;;;;;;11.95;100.00;96912.13;4987341;28;20030;-59
2023/10/21 05:44:09;;;;;;;0.20;0.20;;;;;;;11.87;100.00;96914.47;4992042;28;20050;-59
2023/10/21 05:46:36;;;;;;;0.10;0.10;;;;;;;11.96;100.00;96927.16;4984671;28;20532;-59
2023/10/21 05:49:03;;;;;;;0.10;0.10;;;;;;;11.95;100.00;96928.25;4987723;28;20047;-59
2023/10/21 05:51:30;;;;;;;0.20;0.20;;;;;;;12.02;100.00;96931.28;4987023;28;20034;-59
2023/10/21 05:53:57;;;;;;;0.10;0.10;;;;;;;12.11;100.00;96945.56;4984026;28;20050;-59
2023/10/21 05:56:24;;;;;;;0.10;0.10;;;;;;;12.15;100.00;96943.81;4987761;28;20066;-59
2023/10/21 05:58:53;;;;;;;0.10;0.10;;;;;;;12.21;100.00;96950.66;4987047;28;21080;-59
2023/10/21 06:01:20;;;;;;;0.10;0.10;;;;;;;12.17;100.00;96963.09;4988704;28;20151;-59
2023/10/21 06:03:47;;;;;;;0.10;0.10;;;;;;;12.16;100.00;96972.28;4984576;28;20377;-59
2023/10/21 06:06:16;;;;;;;0.10;0.10;;;;;;;12.19;100.00;96982.41;4983525;28;20133;-59
2023/10/21 06:08:44;;;;;;;0.05;0.05;;;;;;;12.16;100.00;96980.34;4982738;28;20050;-59
2023/10/21 06:11:11;;;;;;;0.10;0.10;;;;;;;12.24;100.00;96995.69;4986646;28;20129;-59
2023/10/21 06:13:38;;;;;;;0.10;0.10;;;;;;;12.23;100.00;96996.00;4982516;28;20062;-59
2023/10/21 06:16:07;;;;;;;0.10;0.10;;;;;;;12.26;100.00;96998.09;4984380;28;20039;-59
2023/10/21 06:18:34;;;;;;;0.20;0.20;;;;;;;12.17;100.00;96999.91;4977108;28;20104;-59
2023/10/21 06:21:01;;;;;;;0.17;0.17;;;;;;;12.05;100.00;97011.22;4992300;28;20460;-59
2023/10/21 06:23:28;;;;;;;0.03;0.03;;;;;;;12.07;100.00;97020.53;4980925;28;20046;-59
2023/10/21 06:25:55;;;;;;;0.10;0.10;;;;;;;12.11;100.00;97034.16;4986151;28;20066;-59
2023/10/21 06:28:22;;;;;;;0.10;0.10;;;;;;;12.13;100.00;97041.91;4984699;28;20042;-59
2023/10/21 06:30:49;;;;;;;0.10;0.10;;;;;;;12.06;100.00;97050.41;4985625;28;20046;-59
2023/10/21 06:33:17;;;;;;;0.10;0.10;;;;;;;11.96;100.00;97062.16;4986951;28;20081;-59
2023/10/21 06:35:45;;;;;;;0.17;0.17;;;;;;;11.97;100.00;97065.63;4985803;28;20048;-59
2023/10/21 06:38:12;;;;;;;0.10;0.10;;;;;;;11.93;100.00;97067.34;4986728;28;20134;-59
2023/10/21 06:40:39;;;;;;;0.20;0.20;;;;;;;11.93;100.00;97083.44;4978998;28;20127;-59
2023/10/21 06:43:06;;;;;;;0.10;0.10;;;;;;;11.84;100.00;97086.03;4989424;28;20038;-59
2023/10/21 06:45:33;;;;;;;0.10;0.10;;;;;;;11.86;100.00;97095.41;4983299;28;20038;-59
2023/10/21 06:48:01;;;;;;;0.20;0.20;;;;;;;11.98;100.00;97099.44;4982919;28;20438;-60
2023/10/21 06:50:30;;;;;;;0.10;0.10;;;;;;;11.89;100.00;97114.69;4983065;28;20046;-59
2023/10/21 06:52:58;;;;;;;0.10;0.10;;;;;;;11.84;100.00;97124.41;4985119;28;20696;-59
2023/10/21 06:55:25;;;;;;;0.20;0.20;;;;;;;11.86;100.00;97122.25;4985943;28;20038;-59
2023/10/21 06:57:52;;;;;;;0.13;0.13;;;;;;;11.73;100.00;97127.59;4986321;28;20045;-59
2023/10/21 07:00:19;;;;;;;0.20;0.20;;;;;;;11.70;100.00;97145.09;4984709;28;20663;-59
2023/10/21 07:02:46;;;;;;;0.10;0.10;;;;;;;11.69;100.00;97148.09;4985577;28;20050;-59
2023/10/21 07:05:13;;;;;;;0.10;0.10;;;;;;;11.81;100.00;97159.09;4983372;28;20047;-59
2023/10/21 07:07:42;;;;;;;0.20;0.20;;;;;;;13.08;100.00;97160.72;4983364;28;20042;-59
2023/10/21 07:10:09;;;;;;;0.22;0.22;;;;;;;13.49;100.00;97158.88;4980696;28;20545;-59
2023/10/21 07:12:38;;;;;;;0.10;0.10;;;;;;;14.11;97.35;97169.44;4985926;28;20046;-59
2023/10/21 07:15:07;;;;;;;0.17;0.17;;;;;;;13.64;98.55;97166.50;4985555;28;20038;-59
2023/10/21 07:17:34;;;;;;;0.20;0.20;;;;;;;14.00;97.65;97174.34;4982320;28;20096;-59
2023/10/21 07:20:01;;;;;;;0.10;0.10;;;;;;;13.15;100.00;97187.16;4980569;28;20433;-59
2023/10/21 07:22:28;;;;;;;0.20;0.20;;;;;;;13.25;100.00;97186.09;4985416;28;20046;-59
2023/10/21 07:24:57;;;;;;;0.10;0.10;;;;;;;12.58;100.00;97189.66;4983506;28;20074;-59
2023/10/21 07:27:24;;;;;;;0.10;0.10;;;;;;;12.38;100.00;97198.97;4984725;28;20050;-59
2023/10/21 07:29:51;;;;;;;0.20;0.20;;;;;;;13.16;100.00;97204.91;4983536;28;20100;-59
2023/10/21 07:32:18;;;;;;;0.20;0.20;;;;;;;13.84;100.00;97218.97;4983982;28;20049;-59
2023/10/21 07:34:45;;;;;;;0.20;0.20;;;;;;;13.67;100.00;97224.31;4983273;28;20077;-59
2023/10/21 07:37:13;;;;;;;0.10;0.10;;;;;;;12.88;100.00;97221.19;4980611;28;20064;-59
2023/10/21 07:39:40;;;;;;;0.10;0.10;;;;;;;12.70;100.00;97228.34;4980302;28;20201;-59
2023/10/21 07:42:08;;;;;;;0.20;0.20;;;;;;;13.81;100.00;97225.78;4981137;28;20057;-59
2023/10/21 07:44:35;;;;;;;0.15;0.15;;;;;;;13.72;100.00;97221.47;4984365;28;20066;-60
2023/10/21 07:47:04;;;;;;;0.20;0.20;;;;;;;14.33;99.01;97235.88;4984478;28;20493;-60
2023/10/21 07:49:31;;;;;;;0.10;0.10;;;;;;;14.23;99.65;97238.88;4983243;28;20490;-60
2023/10/21 07:51:58;;;;;;;0.10;0.10;;;;;;;13.41;100.00;97243.03;4981854;28;20038;-60
2023/10/21 07:54:25;;;;;;;0.10;0.10;;;;;;;13.21;100.00;97244.34;4972664;28;20073;-60
2023/10/21 07:56:54;;;;;;;0.20;0.20;;;;;;;14.09;100.00;97255.16;4983962;28;20085;-60
2023/10/21 07:59:22;;;;;;;0.10;0.10;;;;;;;13.65;100.00;97253.44;4979691;28;20046;-60
2023/10/21 08:01:50;;;;;;;0.10;0.10;;;;;;;13.25;100.00;97256.03;4981860;28;20047;-60
2023/10/21 08:04:18;;;;;;;0.20;0.20;;;;;;;13.75;100.00;97272.00;4982695;28;20046;-60
2023/10/21 08:06:46;;;;;;;0.10;0.10;;;;;;;13.45;100.00;97266.31;4978315;28;20076;-60
2023/10/21 08:09:15;;;;;;;0.10;0.10;;;;;;;13.25;100.00;97277.56;4978777;28;20516;-60
2023/10/21 08:11:43;;;;;;;0.10;0.10;;;;;;;13.01;100.00;97267.94;4983223;28;20504;-60
2023/10/21 08:14:10;;;;;;;0.20;0.20;;;;;;;14.22;100.00;97285.78;4977710;28;20424;-60
2023/10/21 08:16:38;;;;;;;0.20;0.20;;;;;;;14.46;96.88;97291.53;4975776;28;20062;-60
2023/10/21 08:19:06;;;;;;;0.20;0.20;;;;;;;15.08;92.69;97287.00;4979229;28;20049;-60
2023/10/21 08:21:34;;;;;;;0.10;0.10;;;;;;;15.05;90.93;97290.31;4973255;28;20051;-60
2023/10/21 08:24:02;;;;;;;0.00;0.00;;;;;;;14.49;92.71;97306.28;4972566;28;20038;-60
2023/10/21 08:26:29;;;;;;;0.10;0.10;;;;;;;13.80;95.88;97302.28;4979142;28;20043;-60
2023/10/21 08:28:58;;;;;;;0.10;0.10;;;;;;;15.03;89.74;97314.94;4985783;28;20108;-60
2023/10/21 08:31:25;;;;;;;0.10;0.10;;;;;;;15.58;85.66;97301.84;4985165;28;20248;-60
2023/10/21 08:33:54;;;;;;;0.10;0.10;;;;;;;15.53;83.80;97314.41;4986150;28;20035;-60
2023/10/21 08:36:22;;;;;;;0.00;0.00;;;;;;;15.60;82.71;97327.41;4984443;28;20440;-60
2023/10/21 08:38:49;;;;;;;0.00;0.00;;;;;;;14.93;85.91;97325.25;4980712;28;20047;-60
2023/10/21 08:41:16;;;;;;;0.10;0.10;;;;;;;15.07;88.15;97323.19;4985150;28;20042;-60
2023/10/21 08:43:46;;;;;;;0.10;0.10;;;;;;;14.65;89.29;97330.91;4987065;28;20421;-60
2023/10/21 08:46:14;;;;;;;0.00;0.00;;;;;;;15.38;86.78;97333.00;4986196;28;20048;-60
2023/10/21 08:48:42;;;;;;;0.10;0.10;;;;;;;15.41;85.01;97333.16;4986754;28;20061;-60
2023/10/21 08:51:10;;;;;;;0.10;0.10;;;;;;;16.00;82.03;97329.88;4995215;28;20508;-60
2023/10/21 08:53:38;;;;;;;0.10;0.10;;;;;;;14.44;90.69;97339.56;4977847;28;20532;-60
2023/10/21 08:56:06;;;;;;;0.10;0.10;;;;;;;13.64;96.75;97343.38;4979792;28;20133;-61
2023/10/21 08:58:33;;;;;;;0.10;0.10;;;;;;;13.47;98.30;97344.06;4983939;28;20051;-60
2023/10/21 09:01:02;;;;;;;0.10;0.10;;;;;;;14.08;96.46;97358.66;4983288;28;20042;-60
2023/10/21 09:03:29;;;;;;;0.20;0.20;;;;;;;13.98;96.43;97359.72;4985856;28;20061;-60
2023/10/21 09:06:04;;;;;;;0.10;0.10;;;;;;;14.75;91.99;97368.38;4983693;28;20050;-59
2023/10/21 09:08:33;;;;;;;0.10;0.10;;;;;;;14.01;95.25;97377.94;4985455;28;20125;-59
2023/10/21 09:11:00;;;;;;;0.00;0.00;;;;;;;13.88;97.32;97381.53;4983172;28;20509;-59
2023/10/21 09:13:30;;;;;;;0.10;0.10;;;;;;;13.69;98.88;97386.31;4979045;28;21308;-60
2023/10/21 09:15:57;;;;;;;0.10;0.10;;;;;;;13.40;99.56;97389.44;4982005;28;20048;-59
2023/10/21 09:18:24;;;;;;;0.10;0.10;;;;;;;13.54;100.00;97399.03;4986168;28;20497;-60
2023/10/21 09:20:51;;;;;;;0.10;0.10;;;;;;;13.51;100.00;97399.66;4985056;28;20684;-59
2023/10/21 09:23:18;;;;;;;0.10;0.10;;;;;;;13.60;100.00;97402.41;4982268;28;20063;-59
2023/10/21 09:25:50;;;;;;;0.20;0.20;;;;;;;14.31;97.49;97415.94;4981960;28;20049;-59
2023/10/21 09:28:21;;;;;;;0.20;0.20;;;;;;;15.37;92.44;97415.09;4986124;28;20062;-59
2023/10/21 09:30:55;;;;;;;;;;;;;;;15.54;91.49;97420.47;4984632;28;20096;-60
2023/10/21 09:33:22;;;;;;;0.10;0.10;;;;;;;14.35;97.71;97421.50;4981060;28;19921;-59
2023/10/21 09:36:00;;;;;;;0.13;0.13;;;;;;;15.39;91.67;97429.06;4978291;28;20057;-60
2023/10/21 09:38:27;;;;;;;0.20;0.20;;;;;;;15.41;91.86;97434.94;4978647;28;20398;-60
2023/10/21 09:40:56;;;;;;;0.10;0.10;;;;;;;15.55;89.59;97435.59;4977810;28;20065;-59
2023/10/21 09:43:23;;;;;;;0.10;0.10;;;;;;;14.28;95.11;97434.63;4984066;28;20046;-59
2023/10/21 09:45:50;;;;;;;0.10;0.10;;;;;;;14.54;93.79;97438.25;4987939;28;20053;-59
2023/10/21 09:48:18;;;;;;;0.10;0.10;;;;;;;14.39;94.72;97444.81;4981869;28;20057;-59
2023/10/21 09:50:49;;;;;;;0.10;0.10;;;;;;;14.92;93.48;97447.72;4983701;28;20097;-59
2023/10/21 09:53:17;;;;;;;0.10;0.10;;;;;;;14.96;92.51;97440.59;4983411;28;20051;-59
2023/10/21 09:55:44;;;;;;;0.10;0.10;;;;;;;15.84;86.90;97442.25;4979304;28;20240;-59
2023/10/21 09:58:12;;;;;;;0.00;0.00;;;;;;;16.57;83.89;97453.81;4982159;28;20559;-59
2023/10/21 10:00:40;;;;;;;0.10;0.10;;;;;;;16.47;87.65;97454.16;4979501;28;20078;-59
2023/10/21 10:03:07;;;;;;;0.10;0.10;;;;;;;16.72;82.14;97438.94;4980766;28;20050;-59
2023/10/21 10:05:34;;;;;;;0.05;0.05;;;;;;;16.63;81.40;97445.53;4982788;28;20043;-59
2023/10/21 10:08:04;;;;;;;0.10;0.10;;;;;;;16.61;78.86;97452.03;4972316;28;20109;-59
2023/10/21 10:10:34;;;;;;;0.10;0.10;;;;;;;16.29;79.33;97453.44;4978031;28;20035;-62
2023/10/21 10:13:02;;;;;;;0.10;0.10;;;;;;;15.92;81.27;97457.66;4973940;28;20161;-59
2023/10/21 10:15:32;;;;;;;0.00;0.00;;;;;;;16.42;77.36;97461.66;4975702;28;20090;-59
2023/10/21 10:17:59;;;;;;;0.10;0.10;;;;;;;16.62;75.25;97466.34;4980109;28;20109;-59
2023/10/21 10:20:27;;;;;;;0.20;0.20;;;;;;;16.97;76.03;97469.72;4983850;28;20628;-59
2023/10/21 10:22:58;;;;;;;0.00;0.00;;;;;;;15.98;80.50;97477.22;4978305;28;20049;-59
2023/10/21 10:25:27;;;;;;;0.10;0.10;;;;;;;16.46;76.89;97474.22;4971855;28;20070;-59
2023/10/21 10:27:57;;;;;;;0.10;0.10;;;;;;;17.16;73.67;97469.28;4980666;28;20042;-59
2023/10/21 10:30:24;;;;;;;0.00;0.00;;;;;;;15.88;77.88;97470.22;4976768;28;20052;-59
2023/10/21 10:32:53;;;;;;;0.00;0.00;;;;;;;15.53;81.45;97465.59;4979546;28;20039;-59
2023/10/21 10:35:30;;;;;;;0.10;0.10;;;;;;;16.17;75.61;97467.63;4981526;28;20677;-59
2023/10/21 10:37:59;;;;;;;0.10;0.10;;;;;;;16.73;76.18;97467.59;4980354;28;20111;-59
2023/10/21 10:40:35;;;;;;;0.10;0.10;;;;;;;16.01;76.86;97463.84;4983471;28;20042;-59
2023/10/21 10:43:03;;;;;;;0.00;0.00;;;;;;;16.44;77.13;97454.81;4983001;28;20050;-59
2023/10/21 10:45:32;;;;;;;0.10;0.10;;;;;;;16.99;72.59;97459.34;4984355;28;20521;-59
2023/10/21 10:48:02;;;;;;;0.10;0.10;;;;;;;16.58;74.73;97460.81;4979754;28;20073;-59
2023/10/21 10:50:29;;;;;;;0.10;0.10;;;;;;;16.80;74.39;97457.09;4980994;28;20039;-59
2023/10/21 10:52:56;;;;;;;0.10;0.10;;;;;;;16.35;73.54;97456.78;4977678;28;20661;-59
2023/10/21 10:55:24;;;;;;;0.10;0.10;;;;;;;16.39;75.36;97463.09;4984869;28;20450;-59
2023/10/21 10:57:52;;;;;;;0.10;0.10;;;;;;;16.59;75.82;97456.97;4984327;28;20050;-59
2023/10/21 11:00:21;;;;;;;0.10;0.10;;;;;;;16.30;75.26;97455.03;4983687;28;20402;-59
2023/10/21 11:02:49;;;;;;;0.10;0.10;;;;;;;16.14;77.40;97460.13;4987761;28;20108;-59
2023/10/21 11:05:20;;;;;;;0.00;0.00;;;;;;;15.93;75.20;97451.16;4984857;28;20057;-59
2023/10/21 11:07:48;;;;;;;0.00;0.00;;;;;;;16.14;76.16;97448.53;4981237;28;20054;-59
2023/10/21 11:10:19;;;;;;;0.00;0.00;;;;;;;15.87;75.47;97442.38;4983775;28;20043;-59
2023/10/21 11:12:47;;;;;;;0.10;0.10;;;;;;;15.67;76.37;97457.31;4983979;28;20450;-59
2023/10/21 11:15:15;;;;;;;0.05;0.05;;;;;;;15.69;75.60;97465.94;4984467;28;20039;-58
2023/10/21 11:17:43;;;;;;;0.10;0.10;;;;;;;15.46;78.75;97456.38;4984992;28;20513;-59
2023/10/21 11:20:13;;;;;;;0.10;0.10;;;;;;;15.82;78.01;97477.66;4975057;28;20505;-59
2023/10/21 11:22:41;;;;;;;0.10;0.10;;;;;;;16.27;77.11;97484.59;4977050;28;20762;-59
2023/10/21 11:25:09;;;;;;;0.10;0.10;;;;;;;16.25;76.61;97486.81;4982175;28;20050;-59
2023/10/21 11:27:36;;;;;;;0.00;0.00;;;;;;;16.32;75.96;97490.63;4977842;28;20200;-59
2023/10/21 11:30:07;;;;;;;0.10;0.10;;;;;;;15.92;77.27;97476.56;4984121;28;20424;-59
2023/10/21 11:32:35;;;;;;;0.10;0.10;;;;;;;15.96;78.56;97482.91;4980604;28;20053;-59
2023/10/21 11:35:02;;;;;;;0.00;0.00;;;;;;;15.96;78.61;97480.22;4980060;28;20125;-59